Time;durP1;ratioP1;P1;durP2;ratioP2;P2;SDS_P1;SDS_P2;PMS_P1;PMS_P2;Temp;Humidity;BMP_temperature;BMP_pressure;BME280_temperature;BME280_humidity;BME280_pressure;Samples;Min_cycle;Max_cycle;Signal;HPM_P1;HPM_P2
2022/03/03 00:00:48;;;;;;;;;;;;;;;12.49;38.47;101272.94;4940282;28;128705;-63
2022/03/03 00:03:14;;;;;;;;;;;;;;;12.48;38.52;101275.91;4941438;28;111500;-71
2022/03/03 00:05:40;;;;;;;;;;;;;;;12.45;38.19;101271.81;4939804;28;126816;-70
2022/03/03 00:08:06;;;;;;;;;;;;;;;12.44;38.49;101269.38;4922240;28;122250;-63
2022/03/03 00:10:32;;;;;;;;;;;;;;;12.42;38.55;101258.03;4922686;28;98188;-63
2022/03/03 00:12:58;;;;;;;;;;;;;;;12.40;38.66;101260.97;4934928;28;117910;-70
2022/03/03 00:15:24;;;;;;;;;;;;;;;12.38;38.49;101249.63;4920683;28;112220;-64
2022/03/03 00:17:50;;;;;;;;;;;;;;;12.36;38.45;101249.06;4923807;28;97837;-64
2022/03/03 00:20:16;;;;;;;;;;;;;;;12.34;38.58;101239.56;4939275;28;128422;-70
2022/03/03 00:22:43;;;;;;;;;;;;;;;12.33;38.62;101232.53;4941362;28;98338;-64
2022/03/03 00:25:09;;;;;;;;;;;;;;;12.31;38.82;101230.09;4941372;28;98875;-63
2022/03/03 00:27:35;;;;;;;;;;;;;;;12.28;38.47;101230.63;4940592;28;122137;-64
2022/03/03 00:30:01;;;;;;;;;;;;;;;12.26;38.69;101230.06;4939198;28;128068;-71
2022/03/03 00:32:27;;;;;;;;;;;;;;;12.24;38.64;101224.09;4939714;28;127851;-70
2022/03/03 00:34:53;;;;;;;;;;;;;;;12.22;38.52;101224.38;4939644;28;128164;-71
2022/03/03 00:37:19;;;;;;;;;;;;;;;12.20;38.82;101226.50;4940660;28;97799;-64
2022/03/03 00:39:44;;;;;;;;;;;;;;;12.19;38.80;101221.38;4940460;28;98118;-63
2022/03/03 00:42:10;;;;;;;;;;;;;;;12.17;38.70;101221.63;4940179;28;126793;-63
2022/03/03 00:44:36;;;;;;;;;;;;;;;12.15;38.76;101222.97;4940464;28;127557;-71
2022/03/03 00:47:02;;;;;;;;;;;;;;;12.14;38.75;101215.91;4931084;28;98057;-64
2022/03/03 00:49:28;;;;;;;;;;;;;;;12.11;38.60;101213.75;4920529;28;98865;-64
2022/03/03 00:51:54;;;;;;;;;;;;;;;12.08;38.55;101209.66;4921261;28;97850;-70
2022/03/03 00:54:20;;;;;;;;;;;;;;;12.07;38.64;101218.88;4925881;28;127679;-71
2022/03/03 00:56:46;;;;;;;;;;;;;;;12.07;38.42;101220.75;4939961;28;121868;-64
2022/03/03 00:59:12;;;;;;;;;;;;;;;12.04;38.55;101219.38;4940765;28;98343;-70
2022/03/03 01:01:38;;;;;;;;;;;;;;;12.03;38.54;101220.44;4937449;28;129645;-64
2022/03/03 01:04:04;;;;;;;;;;;;;;;12.00;38.52;101227.19;4938776;28;97849;-63
2022/03/03 01:06:30;;;;;;;;;;;;;;;11.98;38.77;101223.09;4937487;28;98032;-70
2022/03/03 01:08:56;;;;;;;;;;;;;;;11.96;38.56;101217.97;4940128;28;128226;-64
2022/03/03 01:11:22;;;;;;;;;;;;;;;11.96;38.42;101219.84;4939330;28;127821;-63
2022/03/03 01:13:48;;;;;;;;;;;;;;;11.94;38.74;101212.00;4921441;28;128928;-63
2022/03/03 01:16:14;;;;;;;;;;;;;;;11.92;38.84;101222.25;4906129;28;97995;-71
2022/03/03 01:18:42;;;;;;;;;;;;;;;11.90;38.63;101218.97;4903097;28;98437;-64
2022/03/03 01:21:08;;;;;;;;;;;;;;;11.90;38.65;101224.38;4920653;28;98288;-63
2022/03/03 01:23:34;;;;;;;;;;;;;;;11.88;38.91;101223.84;4917722;28;122082;-64
2022/03/03 01:26:00;;;;;;;;;;;;;;;11.87;39.08;101222.22;4902216;28;122750;-63
2022/03/03 01:28:26;;;;;;;;;;;;;;;11.85;38.68;101229.75;4919326;28;127195;-63
2022/03/03 01:30:52;;;;;;;;;;;;;;;11.85;39.04;101223.53;4885204;28;128800;-70
2022/03/03 01:33:17;;;;;;;;;;;;;;;11.83;38.49;101223.81;4924642;28;105653;-71
2022/03/03 01:35:43;;;;;;;;;;;;;;;11.82;38.46;101216.72;4939369;28;122832;-70
2022/03/03 01:38:09;;;;;;;;;;;;;;;11.80;38.76;101218.88;4939259;28;126125;-63
2022/03/03 01:40:36;;;;;;;;;;;;;;;11.79;38.81;101218.06;4904535;28;127499;-64
2022/03/03 01:43:02;;;;;;;;;;;;;;;11.78;39.14;101212.91;4918313;28;98551;-71
2022/03/03 01:45:28;;;;;;;;;;;;;;;11.75;38.42;101216.97;4920357;28;97837;-63
2022/03/03 01:47:54;;;;;;;;;;;;;;;11.74;38.47;101215.31;4930778;28;98857;-63
2022/03/03 01:50:20;;;;;;;;;;;;;;;11.73;38.69;101216.38;4920040;28;128434;-71
2022/03/03 01:52:45;;;;;;;;;;;;;;;11.72;38.69;101214.75;4939347;28;127178;-71
2022/03/03 01:55:11;;;;;;;;;;;;;;;11.71;38.76;101223.09;4920685;28;122052;-71
2022/03/03 01:57:37;;;;;;;;;;;;;;;11.71;39.08;101223.09;4921715;28;98242;-71
2022/03/03 02:00:05;;;;;;;;;;;;;;;11.69;39.05;101222.56;4919899;28;128140;-71
2022/03/03 02:02:31;;;;;;;;;;;;;;;11.69;39.23;101220.66;4940181;28;98513;-64
2022/03/03 02:04:57;;;;;;;;;;;;;;;11.68;38.78;101210.94;4920875;28;121710;-63
2022/03/03 02:07:23;;;;;;;;;;;;;;;11.66;38.75;101210.38;4938547;28;129167;-65
2022/03/03 02:09:49;;;;;;;;;;;;;;;11.66;38.99;101210.38;4938211;28;128864;-63
2022/03/03 02:12:15;;;;;;;;;;;;;;;11.67;38.82;101205.78;4927851;28;99167;-71
2022/03/03 02:14:45;;;;;;;;;;;;;;;11.65;39.04;101206.06;4919483;28;97908;-71
2022/03/03 02:17:11;;;;;;;;;;;;;;;11.65;39.00;101202.53;4885632;28;98392;-63
2022/03/03 02:19:37;;;;;;;;;;;;;;;11.65;39.06;101202.53;4900852;28;128137;-63
2022/03/03 02:22:04;;;;;;;;;;;;;;;11.63;39.13;101197.41;4919737;28;98402;-63
2022/03/03 02:24:30;;;;;;;;;;;;;;;11.62;38.93;101198.47;4920525;28;97998;-63
2022/03/03 02:26:56;;;;;;;;;;;;;;;11.61;38.86;101188.72;4920126;28;108227;-70
2022/03/03 02:29:22;;;;;;;;;;;;;;;11.61;38.82;101190.63;4901248;28;98821;-63
2022/03/03 02:31:48;;;;;;;;;;;;;;;11.60;39.14;101191.69;4900992;28;128378;-63
2022/03/03 02:34:14;;;;;;;;;;;;;;;11.58;38.95;101191.13;4918741;28;122875;-63
2022/03/03 02:36:40;;;;;;;;;;;;;;;11.58;38.57;101188.44;4918365;28;128272;-65
2022/03/03 02:39:06;;;;;;;;;;;;;;;11.55;38.83;101187.03;4905056;28;128222;-63
2022/03/03 02:41:32;;;;;;;;;;;;;;;11.53;39.18;101173.81;4904072;28;98353;-71
2022/03/03 02:43:58;;;;;;;;;;;;;;;11.53;39.11;101178.41;4942407;28;98068;-71
2022/03/03 02:46:24;;;;;;;;;;;;;;;11.51;38.89;101164.34;4941060;28;123138;-70
2022/03/03 02:48:50;;;;;;;;;;;;;;;11.50;38.89;101168.09;4941492;28;113979;-70
2022/03/03 02:51:16;;;;;;;;;;;;;;;11.48;39.31;101170.25;4942312;28;98163;-71
2022/03/03 02:53:42;;;;;;;;;;;;;;;11.46;39.04;101167.00;4941105;28;118083;-70
2022/03/03 02:56:08;;;;;;;;;;;;;;;11.44;39.30;101161.84;4923585;28;128958;-70
2022/03/03 02:58:34;;;;;;;;;;;;;;;11.45;39.33;101162.66;4925142;28;99994;-64
2022/03/03 03:01:00;;;;;;;;;;;;;;;11.44;38.96;101150.25;4920391;28;128729;-63
2022/03/03 03:03:26;;;;;;;;;;;;;;;11.41;39.27;101148.88;4942533;28;98609;-63
2022/03/03 03:05:52;;;;;;;;;;;;;;;11.40;39.26;101149.13;4941313;28;129187;-63
2022/03/03 03:08:18;;;;;;;;;;;;;;;11.38;38.90;101159.34;4929257;28;127420;-70
2022/03/03 03:10:44;;;;;;;;;;;;;;;11.36;39.37;101150.69;4921837;28;97913;-70
2022/03/03 03:13:14;;;;;;;;;;;;;;;11.34;39.08;101144.75;4922757;28;97950;-63
2022/03/03 03:15:41;;;;;;;;;;;;;;;11.34;38.80;101142.03;4922034;28;98510;-71
2022/03/03 03:18:11;;;;;;;;;;;;;;;11.31;39.00;101144.16;4904729;28;98751;-64
2022/03/03 03:20:38;;;;;;;;;;;;;;;11.30;39.04;101141.75;4903347;28;98544;-63
2022/03/03 03:23:04;;;;;;;;;;;;;;;11.29;39.59;101148.22;4921788;28;109968;-71
2022/03/03 03:25:30;;;;;;;;;;;;;;;11.27;39.20;101148.44;4921806;28;99252;-71
2022/03/03 03:27:56;;;;;;;;;;;;;;;11.25;39.03;101141.69;4931024;28;128079;-71
2022/03/03 03:30:22;;;;;;;;;;;;;;;11.24;39.14;101140.09;4940789;28;126953;-69
2022/03/03 03:32:47;;;;;;;;;;;;;;;11.21;39.30;101132.50;4941964;28;121043;-63
2022/03/03 03:35:13;;;;;;;;;;;;;;;11.20;39.37;101131.69;4940347;28;98914;-71
2022/03/03 03:37:39;;;;;;;;;;;;;;;11.18;38.79;101122.19;4920963;28;128365;-71
2022/03/03 03:40:07;;;;;;;;;;;;;;;11.18;38.87;101127.59;4903846;28;98018;-70
2022/03/03 03:42:33;;;;;;;;;;;;;;;11.16;38.94;101124.31;4906346;28;97790;-71
2022/03/03 03:44:59;;;;;;;;;;;;;;;11.14;38.71;101124.59;4940689;28;120806;-71
2022/03/03 03:47:25;;;;;;;;;;;;;;;11.11;38.90;101130.50;4906987;28;129137;-71
2022/03/03 03:49:50;;;;;;;;;;;;;;;11.11;39.20;101135.06;4939808;28;126453;-70
2022/03/03 03:52:16;;;;;;;;;;;;;;;11.09;39.11;101129.94;4923342;28;123181;-70
2022/03/03 03:54:42;;;;;;;;;;;;;;;11.07;38.78;101129.38;4922972;28;108339;-71
2022/03/03 03:57:08;;;;;;;;;;;;;;;11.06;38.75;101127.75;4941549;28;99124;-71
2022/03/03 03:59:35;;;;;;;;;;;;;;;11.05;39.07;101124.25;4939783;28;128209;-71
2022/03/03 04:02:01;;;;;;;;;;;;;;;11.05;39.05;101136.91;4925186;28;98329;-71
2022/03/03 04:04:26;;;;;;;;;;;;;;;11.03;39.46;101130.94;4921311;28;111748;-71
2022/03/03 04:06:52;;;;;;;;;;;;;;;11.01;38.76;101138.50;4903344;28;128508;-63
2022/03/03 04:09:18;;;;;;;;;;;;;;;11.00;38.81;101135.00;4920010;28;126899;-63
2022/03/03 04:11:44;;;;;;;;;;;;;;;10.99;39.31;101127.94;4920681;28;122826;-71
2022/03/03 04:14:10;;;;;;;;;;;;;;;10.98;39.44;101129.03;4920137;28;129376;-71
2022/03/03 04:16:36;;;;;;;;;;;;;;;10.97;39.08;101122.00;4920096;28;127066;-63
2022/03/03 04:19:02;;;;;;;;;;;;;;;10.96;39.22;101112.25;4921878;28;98743;-70
2022/03/03 04:21:28;;;;;;;;;;;;;;;10.95;38.86;101126.81;4920346;28;122161;-63
2022/03/03 04:23:54;;;;;;;;;;;;;;;10.93;39.35;101126.28;4921140;28;120053;-64
2022/03/03 04:26:20;;;;;;;;;;;;;;;10.94;39.08;101122.50;4920593;28;126081;-70
2022/03/03 04:28:45;;;;;;;;;;;;;;;10.94;38.94;101113.59;4887665;28;119374;-70
2022/03/03 04:31:11;;;;;;;;;;;;;;;10.93;39.32;101110.09;4903430;28;123396;-63
2022/03/03 04:33:37;;;;;;;;;;;;;;;10.94;38.95;101100.91;4934356;28;128340;-64
2022/03/03 04:36:04;;;;;;;;;;;;;;;10.95;38.70;101099.84;4922293;28;98367;-70
2022/03/03 04:38:30;;;;;;;;;;;;;;;10.96;39.34;101101.47;4922273;28;99381;-64
2022/03/03 04:40:56;;;;;;;;;;;;;;;10.96;39.72;101101.47;4939569;28;105808;-70
2022/03/03 04:43:22;;;;;;;;;;;;;;;10.97;38.70;101096.91;4940203;28;125729;-70
2022/03/03 04:45:48;;;;;;;;;;;;;;;10.98;39.01;101093.94;4940022;28;128537;-63
2022/03/03 04:48:14;;;;;;;;;;;;;;;10.99;39.22;101095.56;4923075;28;127637;-70
2022/03/03 04:50:40;;;;;;;;;;;;;;;10.99;38.91;101095.56;4919635;28;121383;-63
2022/03/03 04:53:06;;;;;;;;;;;;;;;11.01;39.37;101096.16;4902247;28;128588;-63
2022/03/03 04:55:32;;;;;;;;;;;;;;;11.01;38.95;101092.63;4936707;28;98406;-70
2022/03/03 04:57:58;;;;;;;;;;;;;;;11.02;39.25;101086.97;4939940;28;128377;-63
2022/03/03 05:00:23;;;;;;;;;;;;;;;11.03;39.06;101083.19;4919614;28;122669;-70
2022/03/03 05:02:49;;;;;;;;;;;;;;;11.03;39.43;101082.38;4886271;28;126719;-64
2022/03/03 05:05:15;;;;;;;;;;;;;;;11.02;39.02;101084.28;4901126;28;128221;-63
2022/03/03 05:07:41;;;;;;;;;;;;;;;11.02;39.33;101078.88;4902221;28;127820;-70
2022/03/03 05:10:08;;;;;;;;;;;;;;;11.02;39.23;101080.78;4901507;28;120948;-71
2022/03/03 05:12:34;;;;;;;;;;;;;;;11.00;39.52;101072.09;4913187;28;120008;-63
2022/03/03 05:15:00;;;;;;;;;;;;;;;10.98;39.20;101079.66;4920617;28;98575;-63
2022/03/03 05:17:26;;;;;;;;;;;;;;;10.97;39.18;101078.03;4919367;28;127828;-71
2022/03/03 05:19:52;;;;;;;;;;;;;;;10.95;39.08;101074.75;4920671;28;115953;-63
2022/03/03 05:22:17;;;;;;;;;;;;;;;10.93;39.20;101075.03;4920749;28;110700;-71
2022/03/03 05:24:49;;;;;;;;;;;;;;;10.92;39.16;101078.78;4919529;28;126954;-71
2022/03/03 05:27:15;;;;;;;;;;;;;;;10.92;39.24;101078.78;4920020;28;97970;-63
2022/03/03 05:29:41;;;;;;;;;;;;;;;10.91;39.26;101081.72;4928154;28;117068;-71
2022/03/03 05:32:07;;;;;;;;;;;;;;;10.90;39.75;101072.03;4939700;28;128134;-63
2022/03/03 05:34:33;;;;;;;;;;;;;;;10.89;39.55;101076.59;4939954;28;98491;-71
2022/03/03 05:36:59;;;;;;;;;;;;;;;10.88;39.60;101079.53;4936841;28;126940;-63
2022/03/03 05:39:26;;;;;;;;;;;;;;;10.86;38.85;101071.72;4921168;28;100290;-71
2022/03/03 05:41:54;;;;;;;;;;;;;;;10.85;39.59;101064.69;4937340;28;122891;-71
2022/03/03 05:44:20;;;;;;;;;;;;;;;10.84;38.84;101063.03;4926669;28;120496;-70
2022/03/03 05:46:46;;;;;;;;;;;;;;;10.85;40.06;101066.59;4917041;28;121404;-71
2022/03/03 05:49:12;;;;;;;;;;;;;;;10.85;39.41;101066.59;4917799;28;113105;-63
2022/03/03 05:51:38;;;;;;;;;;;;;;;10.84;39.60;101065.75;4919233;28;103810;-64
2022/03/03 05:54:04;;;;;;;;;;;;;;;10.83;39.71;101064.13;4919725;28;104487;-65
2022/03/03 05:56:34;;;;;;;;;;;;;;;10.85;40.08;101071.97;4919423;28;121479;-63
2022/03/03 05:59:06;;;;;;;;;;;;;;;10.84;39.73;101073.84;4917887;28;114236;-63
2022/03/03 06:01:31;;;;;;;;;;;;;;;10.87;40.05;101075.22;4917974;28;98622;-64
2022/03/03 06:03:58;;;;;;;;;;;;;;;10.89;39.33;101078.50;4919058;28;127796;-63
2022/03/03 06:06:34;;;;;;;;;;;;;;;10.90;40.02;101075.53;4919170;28;121881;-71
2022/03/03 06:09:04;;;;;;;;;;;;;;;10.93;39.21;101079.59;4920564;28;97761;-71
2022/03/03 06:11:30;;;;;;;;;;;;;;;10.95;39.51;101072.06;4918262;28;102868;-71
2022/03/03 06:14:05;;;;;;;;;;;;;;;10.97;39.91;101064.53;4901391;28;120774;-71
2022/03/03 06:16:31;;;;;;;;;;;;;;;10.99;39.90;101068.59;4901363;28;97993;-63
2022/03/03 06:18:58;;;;;;;;;;;;;;;11.03;39.64;101074.28;4918231;28;124300;-63
2022/03/03 06:21:24;;;;;;;;;;;;;;;11.09;39.33;101077.88;4885315;28;98982;-71
2022/03/03 06:23:50;;;;;;;;;;;;;;;11.12;39.23;101074.63;4919908;28;100390;-64
2022/03/03 06:26:18;;;;;;;;;;;;;;;11.17;39.10;101080.91;4901170;28;98213;-70
2022/03/03 06:28:44;;;;;;;;;;;;;;;11.23;39.01;101089.84;4900851;28;118325;-69
2022/03/03 06:31:10;;;;;;;;;;;;;;;11.30;38.80;101083.19;4919549;28;109598;-71
2022/03/03 06:33:36;;;;;;;;;;;;;;;11.37;39.86;101093.75;4920443;28;99014;-63
2022/03/03 06:36:03;;;;;;;;;;;;;;;11.39;39.34;101085.41;4918852;28;123346;-63
2022/03/03 06:38:28;;;;;;;;;;;;;;;11.43;39.39;101081.91;4919091;28;112470;-71
2022/03/03 06:40:57;;;;;;;;;;;;;;;11.45;39.51;101092.47;4919555;28;99456;-63
2022/03/03 06:43:24;;;;;;;;;;;;;;;11.47;39.92;101090.31;4902172;28;98965;-70
2022/03/03 06:45:50;;;;;;;;;;;;;;;11.48;39.51;101087.38;4869319;28;98077;-63
2022/03/03 06:48:16;;;;;;;;;;;;;;;11.53;39.64;101081.19;4918733;28;115879;-63
2022/03/03 06:50:42;;;;;;;;;;;;;;;11.58;39.83;101086.63;4884963;28;98215;-63
2022/03/03 06:53:09;;;;;;;;;;;;;;;11.66;39.94;101082.63;4918856;28;127781;-63
2022/03/03 06:55:35;;;;;;;;;;;;;;;11.74;39.82;101087.56;4919435;28;99928;-64
2022/03/03 06:58:01;;;;;;;;;;;;;;;11.83;39.87;101077.06;4919827;28;112593;-71
2022/03/03 07:00:33;;;;;;;;;;;;;;;11.83;39.56;101068.97;4917629;28;100459;-64
2022/03/03 07:03:02;;;;;;;;;;;;;;;11.86;39.96;101065.78;4921140;28;98592;-64
2022/03/03 07:05:29;;;;;;;;;;;;;;;11.90;39.36;101075.00;4920588;28;98547;-72
2022/03/03 07:07:55;;;;;;;;;;;;;;;11.94;39.55;101078.78;4939634;28;97709;-63
2022/03/03 07:10:23;;;;;;;;;;;;;;;11.96;39.87;101072.06;4937943;28;99057;-69
2022/03/03 07:12:53;;;;;;;;;;;;;;;12.07;40.05;101069.44;4938772;28;98969;-64
2022/03/03 07:15:20;;;;;;;;;;;;;;;12.18;39.78;101071.91;4921195;28;98337;-64
2022/03/03 07:17:51;;;;;;;;;;;;;;;12.23;39.63;101063.03;4937416;28;97762;-70
2022/03/03 07:20:39;;;;;;;;;;;;;;;12.29;39.80;101060.06;4938684;28;98981;-64
2022/03/03 07:23:08;;;;;;;;;;;;;;;12.40;39.67;101063.63;4938774;28;124142;-70
2022/03/03 07:25:41;;;;;;;;;;;;;;;12.53;39.83;101059.59;4937637;28;98134;-69
2022/03/03 07:28:08;;;;;;;;;;;;;;;12.62;39.54;101055.31;4901250;28;98199;-69
2022/03/03 07:30:39;;;;;;;;;;;;;;;12.73;39.63;101069.66;4920282;28;98918;-64
2022/03/03 07:33:31;;;;;;;;;;;;;;;12.86;39.69;101057.53;4920770;28;98870;-63
2022/03/03 07:35:57;;;;;;;;;;;;;;;13.01;39.83;101066.47;4920824;28;98125;-70
2022/03/03 07:38:34;;;;;;;;;;;;;;;13.14;39.72;101069.75;4936015;28;101673;-64
2022/03/03 07:41:01;;;;;;;;;;;;;;;13.25;39.54;101074.91;4923269;28;99699;-70
2022/03/03 07:43:27;;;;;;;;;;;;;;;13.40;39.61;101084.09;4941913;28;98412;-67
2022/03/03 07:45:53;;;;;;;;;;;;;;;13.52;39.64;101081.97;4887042;28;128622;-65
2022/03/03 07:48:19;;;;;;;;;;;;;;;13.68;39.52;101088.19;4921472;28;115128;-69
2022/03/03 07:50:45;;;;;;;;;;;;;;;13.84;39.49;101097.09;4886743;28;122723;-69
2022/03/03 07:53:12;;;;;;;;;;;;;;;14.03;39.97;101100.00;4920655;28;129043;-68
2022/03/03 07:55:53;;;;;;;;;;;;;;;14.21;39.75;101091.28;4935225;28;98530;-69
2022/03/03 07:58:20;;;;;;;;;;;;;;;14.44;39.74;101092.56;4942498;28;98147;-68
2022/03/03 08:00:50;;;;;;;;;;;;;;;14.67;39.33;101097.38;4939953;28;123247;-64
2022/03/03 08:03:20;;;;;;;;;;;;;;;14.94;39.30;101090.72;4941770;28;98643;-68
2022/03/03 08:05:51;;;;;;;;;;;;;;;15.23;39.44;101090.78;4941361;28;98833;-63
2022/03/03 08:08:21;;;;;;;;;;;;;;;15.66;38.78;101094.50;4923076;28;116882;-71
2022/03/03 08:10:47;;;;;;;;;;;;;;;16.55;37.89;101090.56;4922675;28;98330;-63
2022/03/03 08:13:16;;;;;;;;;;;;;;;17.07;37.78;101092.28;4942109;28;99295;-68
2022/03/03 08:15:45;;;;;;;;;;;;;;;17.55;37.51;101083.88;4907088;28;100050;-69
2022/03/03 08:18:11;;;;;;;;;;;;;;;18.01;37.23;101085.00;4921412;28;98090;-68
2022/03/03 08:20:38;;;;;;;;;;;;;;;18.47;37.14;101084.88;4920785;28;98817;-69
2022/03/03 08:23:04;;;;;;;;;;;;;;;19.18;36.53;101087.97;4928218;28;98696;-68
2022/03/03 08:25:30;;;;;;;;;;;;;;;20.04;36.03;101084.94;4906239;28;98143;-68
2022/03/03 08:27:56;;;;;;;;;;;;;;;20.81;35.44;101082.72;4940822;28;99388;-64
2022/03/03 08:30:22;;;;;;;;;;;;;;;21.60;35.14;101081.53;4939757;28;98439;-67
2022/03/03 08:33:17;;;;;;;;;;;;;;;22.61;34.55;101087.22;4940065;28;126852;-68
2022/03/03 08:35:44;;;;;;;;;;;;;;;23.89;33.72;101098.53;4922330;28;97893;-64
2022/03/03 08:38:28;;;;;;;;;;;;;;;24.60;33.34;101103.63;4907742;28;97833;-68
2022/03/03 08:40:55;;;;;;;;;;;;;;;25.44;33.05;101097.38;4939634;28;98417;-64
2022/03/03 08:43:20;;;;;;;;;;;;;;;26.32;32.32;101098.03;4921801;28;119280;-67
2022/03/03 08:45:48;;;;;;;;;;;;;;;27.45;31.61;101100.88;4922319;28;98926;-64
2022/03/03 08:48:14;;;;;;;;;;;;;;;28.59;30.74;101100.00;4940457;28;97849;-64
2022/03/03 08:50:41;;;;;;;;;;;;;;;29.49;30.34;101104.69;4920669;28;106649;-64
2022/03/03 08:53:07;;;;;;;;;;;;;;;30.20;29.96;101096.22;4921695;28;118594;-68
2022/03/03 08:55:33;;;;;;;;;;;;;;;31.56;29.06;101096.88;4940249;28;97858;-64
2022/03/03 08:58:00;;;;;;;;;;;;;;;32.99;27.97;101096.72;4922368;28;98006;-68
2022/03/03 09:00:26;;;;;;;;;;;;;;;34.06;27.76;101098.03;4939432;28;98887;-64
2022/03/03 09:02:52;;;;;;;;;;;;;;;34.16;27.90;101086.75;4940200;28;116254;-64
2022/03/03 09:05:18;;;;;;;;;;;;;;;35.56;26.74;101080.22;4940022;28;100399;-64
2022/03/03 09:07:44;;;;;;;;;;;;;;;36.57;25.88;101070.84;4939985;28;114600;-64
2022/03/03 09:10:10;;;;;;;;;;;;;;;37.47;25.74;101080.94;4939416;28;116571;-65
2022/03/03 09:12:36;;;;;;;;;;;;;;;38.49;25.22;101073.88;4937744;28;98672;-64
2022/03/03 09:15:04;;;;;;;;;;;;;;;39.31;24.06;101069.88;4939290;28;127808;-67
2022/03/03 09:17:30;;;;;;;;;;;;;;;40.09;24.07;101063.59;4921119;28;107424;-64
2022/03/03 09:20:00;;;;;;;;;;;;;;;40.86;23.49;101061.19;4912195;28;119333;-64
2022/03/03 09:22:26;;;;;;;;;;;;;;;41.25;23.35;101067.34;4887315;28;98002;-68
2022/03/03 09:24:53;;;;;;;;;;;;;;;41.13;23.69;101067.00;4885582;28;125456;-64
2022/03/03 09:27:19;;;;;;;;;;;;;;;40.67;24.15;101066.75;4903609;28;98148;-68
2022/03/03 09:29:45;;;;;;;;;;;;;;;40.00;24.75;101061.50;4900788;28;120581;-67
2022/03/03 09:32:13;;;;;;;;;;;;;;;39.41;25.14;101052.59;4905192;28;126791;-67
2022/03/03 09:34:39;;;;;;;;;;;;;;;39.13;25.29;101043.00;4939417;28;97809;-64
2022/03/03 09:37:05;;;;;;;;;;;;;;;38.87;25.94;101045.06;4940172;28;110400;-67
2022/03/03 09:39:31;;;;;;;;;;;;;;;38.60;26.17;101036.97;4938715;28;128253;-67
2022/03/03 09:41:57;;;;;;;;;;;;;;;38.51;25.64;101031.97;4940283;28;98195;-67
2022/03/03 09:44:24;;;;;;;;;;;;;;;38.59;25.95;101029.75;4938611;28;126507;-64
2022/03/03 09:46:50;;;;;;;;;;;;;;;38.77;25.35;101032.03;4939993;28;100163;-64
2022/03/03 09:49:16;;;;;;;;;;;;;;;39.18;25.29;101021.94;4922244;28;98736;-64
2022/03/03 09:51:42;;;;;;;;;;;;;;;40.13;24.56;101025.59;4919736;28;115032;-67
2022/03/03 09:54:08;;;;;;;;;;;;;;;40.82;23.88;101015.34;4920721;28;98180;-68
2022/03/03 09:56:34;;;;;;;;;;;;;;;41.25;23.51;101008.00;4919881;28;97975;-65
2022/03/03 09:59:00;;;;;;;;;;;;;;;41.76;23.04;101015.94;4918544;28;126307;-68
2022/03/03 10:01:30;;;;;;;;;;;;;;;42.30;22.48;101012.34;4900486;28;128796;-64
2022/03/03 10:03:58;;;;;;;;;;;;;;;42.60;22.39;101018.25;4902449;28;98126;-67
2022/03/03 10:06:24;;;;;;;;;;;;;;;42.70;22.37;101014.16;4902450;28;97827;-68
2022/03/03 10:08:50;;;;;;;;;;;;;;;42.95;22.23;101009.31;4901901;28;98556;-68
2022/03/03 10:11:16;;;;;;;;;;;;;;;43.04;22.47;100997.97;4918819;28;119215;-66
2022/03/03 10:13:49;;;;;;;;;;;;;;;43.30;21.71;100998.28;4919689;28;98874;-67
2022/03/03 10:16:20;;;;;;;;;;;;;;;43.05;20.73;101000.31;4925377;28;97803;-69
2022/03/03 10:19:03;;;;;;;;;;;;;;;42.85;20.19;100998.03;4940039;28;98228;-69
2022/03/03 10:21:30;;;;;;;;;;;;;;;42.46;18.94;100994.22;4939099;28;98752;-64
2022/03/03 10:23:56;;;;;;;;;;;;;;;42.15;19.18;100983.09;4920844;28;98248;-69
2022/03/03 10:26:35;;;;;;;;;;;;;;;41.80;19.79;100985.47;4938679;28;98138;-64
2022/03/03 10:29:01;;;;;;;;;;;;;;;41.41;20.18;100983.09;4921321;28;98047;-64
2022/03/03 10:31:28;;;;;;;;;;;;;;;41.40;20.29;100983.56;4938504;28;98645;-69
2022/03/03 10:33:54;;;;;;;;;;;;;;;41.63;20.24;100987.84;4939180;28;98061;-69
2022/03/03 10:36:26;;;;;;;;;;;;;;;41.73;20.78;100980.91;4940093;28;98611;-69
2022/03/03 10:38:59;;;;;;;;;;;;;;;41.73;20.84;100980.91;4938863;28;98446;-64
2022/03/03 10:41:44;;;;;;;;;;;;;;;41.64;20.99;100970.38;4938247;28;113904;-64
2022/03/03 10:44:12;;;;;;;;;;;;;;;41.71;21.38;100977.78;4919639;28;97959;-64
2022/03/03 10:46:41;;;;;;;;;;;;;;;41.66;21.31;100970.72;4919044;28;97836;-68
2022/03/03 10:49:23;;;;;;;;;;;;;;;41.55;21.41;100972.44;4901551;28;98151;-69
2022/03/03 10:51:49;;;;;;;;;;;;;;;41.06;21.95;100974.03;4925551;28;98836;-64
2022/03/03 10:54:15;;;;;;;;;;;;;;;40.52;22.48;100968.91;4939342;28;98398;-64
2022/03/03 10:56:48;;;;;;;;;;;;;;;39.92;22.74;100961.44;4938763;28;98222;-64
2022/03/03 10:59:24;;;;;;;;;;;;;;;39.34;23.35;100959.03;4921063;28;100974;-69
2022/03/03 11:01:51;;;;;;;;;;;;;;;38.78;24.29;100955.56;4939151;28;98880;-64
2022/03/03 11:04:18;;;;;;;;;;;;;;;38.34;24.68;100954.50;4922215;28;98381;-64
2022/03/03 11:06:44;;;;;;;;;;;;;;;37.93;24.59;100950.44;4943191;28;97963;-69
2022/03/03 11:09:10;;;;;;;;;;;;;;;37.59;25.64;100953.75;4908674;28;98512;-68
2022/03/03 11:11:36;;;;;;;;;;;;;;;37.26;25.41;100956.59;4940300;28;99753;-64
2022/03/03 11:14:02;;;;;;;;;;;;;;;36.96;25.99;100948.50;4903853;28;122836;-69
2022/03/03 11:16:28;;;;;;;;;;;;;;;36.69;26.08;100955.09;4922062;28;98042;-64
2022/03/03 11:18:54;;;;;;;;;;;;;;;36.45;26.39;100945.19;4887433;28;119084;-64
2022/03/03 11:21:20;;;;;;;;;;;;;;;36.23;26.36;100951.25;4904229;28;98678;-69
2022/03/03 11:23:58;;;;;;;;;;;;;;;36.06;26.79;100938.38;4922092;28;115280;-67
2022/03/03 11:26:30;;;;;;;;;;;;;;;35.91;26.98;100937.84;4905968;28;98046;-64
2022/03/03 11:29:12;;;;;;;;;;;;;;;35.77;26.94;100940.94;4922484;28;98032;-64
2022/03/03 11:31:39;;;;;;;;;;;;;;;35.62;27.31;100940.41;4921381;28;98911;-69
2022/03/03 11:34:25;;;;;;;;;;;;;;;35.49;27.13;100940.25;4937403;28;120061;-64
2022/03/03 11:37:15;;;;;;;;;;;;;;;35.33;27.67;100938.09;4938618;28;98650;-69
2022/03/03 11:39:57;;;;;;;;;;;;;;;35.19;27.37;100929.91;4938348;28;98876;-69
2022/03/03 11:42:25;;;;;;;;;;;;;;;35.04;27.87;100937.75;4929024;28;98133;-64
2022/03/03 11:44:52;;;;;;;;;;;;;;;34.90;27.97;100937.97;4939812;28;99436;-69
2022/03/03 11:47:33;;;;;;;;;;;;;;;34.77;28.01;100936.94;4939827;28;97818;-64
2022/03/03 11:50:16;;;;;;;;;;;;;;;34.58;28.10;100932.81;4940857;28;98192;-69
2022/03/03 11:52:43;;;;;;;;;;;;;;;34.35;28.14;100925.91;4927164;28;99242;-69
2022/03/03 11:55:29;;;;;;;;;;;;;;;34.15;28.37;100927.75;4935315;28;97909;-64
2022/03/03 11:58:08;;;;;;;;;;;;;;;33.89;28.00;100926.44;4906702;28;99031;-64
2022/03/03 12:00:45;;;;;;;;;;;;;;;33.66;28.21;100922.28;4922163;28;98226;-69
2022/03/03 12:03:15;;;;;;;;;;;;;;;33.38;28.39;100917.75;4941418;28;98642;-69
2022/03/03 12:05:42;;;;;;;;;;;;;;;33.10;28.68;100918.00;4940627;28;97980;-69
2022/03/03 12:08:11;;;;;;;;;;;;;;;32.89;28.97;100922.47;4920524;28;115410;-69
2022/03/03 12:10:38;;;;;;;;;;;;;;;32.69;29.03;100922.22;4921062;28;98028;-69
2022/03/03 12:13:33;;;;;;;;;;;;;;;32.47;29.17;100920.78;4922109;28;98281;-69
2022/03/03 12:16:19;;;;;;;;;;;;;;;32.14;29.14;100917.28;4933924;28;97991;-65
2022/03/03 12:18:54;;;;;;;;;;;;;;;31.77;29.28;100915.78;4941470;28;97843;-69
2022/03/03 12:21:26;;;;;;;;;;;;;;;31.47;29.45;100909.88;4939753;28;98618;-69
2022/03/03 12:24:14;;;;;;;;;;;;;;;31.17;29.65;100910.28;4941038;28;98646;-64
2022/03/03 12:26:53;;;;;;;;;;;;;;;30.82;29.83;100922.94;4940351;28;98157;-65
2022/03/03 12:29:29;;;;;;;;;;;;;;;30.47;30.03;100913.28;4926383;28;98643;-64
2022/03/03 12:31:55;;;;;;;;;;;;;;;30.14;29.84;100908.75;4920519;28;98835;-64
2022/03/03 12:34:21;;;;;;;;;;;;;;;29.84;30.21;100911.81;4920712;28;127904;-64